Latest Weather Observations for Colpoys Point

IDW60901

Issued at 6:21 pm WST Wednesday 5 August 2020 (issued every 10 minutes, with the page automatically refreshed every 10 minutes)

About weather observations | Map of Perth area stations | Latest observations for Perth area | Other Formats
Station Details ID: 009255 Name: COLPOYS POINT Lat: -32.23 Lon: 115.70 Height: 3.0 m
Data from the previous 72 hours. | See also: Recent months for locations in Western Australia
Date/Time
WST
Temp
°C
App
Temp
°C
Dew
Point
°C
Rel
Hum
%
Delta-T
°C
Wind Press
QNH
hPa
Press
MSL
hPa
Rain since
9am
mm
Dir  Spd
km/h
Gust
km/h
Spd
kts
Gust
kts
05/06:00pm - - - - - S 20 30 11 16 - - -
05/05:30pm - - - - - SSW 28 33 15 18 - - -
05/05:00pm - - - - - S 17 26 9 14 - - -
05/04:30pm - - - - - S 22 33 12 18 - - -
05/04:00pm - - - - - SSW 32 37 17 20 - - -
05/03:30pm - - - - - SSW 35 39 19 21 - - -
05/03:00pm - - - - - SSW 33 39 18 21 - - -
05/02:30pm - - - - - SSW 30 33 16 18 - - -
05/02:00pm - - - - - SSW 32 35 17 19 - - -
05/01:30pm - - - - - SSW 26 32 14 17 - - -
05/01:00pm - - - - - S 22 30 12 16 - - -
05/12:30pm - - - - - SSE 24 30 13 16 - - -
05/12:00pm - - - - - SSE 22 30 12 16 - - -
05/11:30am - - - - - S 24 28 13 15 - - -
05/11:00am - - - - - SSE 24 32 13 17 - - -
05/10:30am - - - - - SSE 28 37 15 20 - - -
05/10:00am - - - - - S 26 33 14 18 - - -
05/09:30am - - - - - S 28 35 15 19 - - -
05/09:00am - - - - - S 32 37 17 20 - - -
05/08:30am - - - - - S 30 35 16 19 - - -
05/08:00am - - - - - S 32 35 17 19 - - -
05/07:30am - - - - - S 32 37 17 20 - - -
05/07:00am - - - - - S 32 35 17 19 - - -
05/06:30am - - - - - S 30 35 16 19 - - -
05/06:00am - - - - - S 32 37 17 20 - - -
05/05:30am - - - - - S 33 41 18 22 - - -
05/05:00am - - - - - S 32 37 17 20 - - -
05/04:30am - - - - - S 33 39 18 21 - - -
05/04:00am - - - - - S 37 43 20 23 - - -
05/03:30am - - - - - S 37 44 20 24 - - -
05/03:00am - - - - - S 39 48 21 26 - - -
05/02:30am - - - - - S 39 44 21 24 - - -
05/02:00am - - - - - S 35 41 19 22 - - -
05/01:30am - - - - - S 35 44 19 24 - - -
05/01:00am - - - - - S 35 44 19 24 - - -
05/12:30am - - - - - S 35 46 19 25 - - -
05/12:00am - - - - - S 35 43 19 23 - - -
 
Date/Time
WST
Temp
°C
App
Temp
°C
Dew
Point
°C
Rel
Hum
%
Delta-T
°C
Wind Press
QNH
hPa
Press
MSL
hPa
Rain since
9am
mm
Dir  Spd
km/h
Gust
km/h
Spd
kts
Gust
kts
04/11:30pm - - - - - S 37 44 20 24 - - -
04/11:00pm - - - - - S 37 44 20 24 - - -
04/10:30pm - - - - - S 39 46 21 25 - - -
04/10:00pm - - - - - S 37 43 20 23 - - -
04/09:30pm - - - - - S 39 46 21 25 - - -
04/09:00pm - - - - - S 39 46 21 25 - - -
04/08:30pm - - - - - S 39 48 21 26 - - -
04/08:00pm - - - - - S 41 50 22 27 - - -
04/07:30pm - - - - - S 37 46 20 25 - - -
04/07:00pm - - - - - S 32 39 17 21 - - -
04/06:30pm - - - - - S 32 37 17 20 - - -
04/06:00pm - - - - - S 37 46 20 25 - - -
04/05:30pm - - - - - S 37 44 20 24 - - -
04/05:00pm - - - - - S 32 41 17 22 - - -
04/04:30pm - - - - - SSW 33 41 18 22 - - -
04/04:00pm - - - - - SSW 22 30 12 16 - - -
04/03:30pm - - - - - SW 13 15 7 8 - - -
04/03:00pm - - - - - SSW 20 26 11 14 - - -
04/02:30pm - - - - - SSW 20 26 11 14 - - -
04/02:00pm - - - - - SSE 19 22 10 12 - - -
04/01:30pm - - - - - S 15 20 8 11 - - -
04/01:00pm - - - - - SSW 17 22 9 12 - - -
04/12:30pm - - - - - SSE 17 22 9 12 - - -
04/12:00pm - - - - - SSE 13 17 7 9 - - -
04/11:30am - - - - - S 19 26 10 14 - - -
04/11:00am - - - - - S 20 26 11 14 - - -
04/10:30am - - - - - SSE 22 26 12 14 - - -
04/10:00am - - - - - SE 15 17 8 9 - - -
04/09:30am - - - - - SSE 19 22 10 12 - - -
04/09:00am - - - - - SSE 20 28 11 15 - - -
04/08:30am - - - - - SSE 28 32 15 17 - - -
04/08:00am - - - - - SSE 20 24 11 13 - - -
04/07:30am - - - - - SSE 22 28 12 15 - - -
04/07:00am - - - - - S 26 32 14 17 - - -
04/06:30am - - - - - SSE 22 26 12 14 - - -
04/06:00am - - - - - SSE 26 30 14 16 - - -
04/05:30am - - - - - SSE 24 30 13 16 - - -
04/05:00am - - - - - SSE 28 33 15 18 - - -
04/04:30am - - - - - SSE 30 33 16 18 - - -
04/04:00am - - - - - SSE 26 30 14 16 - - -
04/03:30am - - - - - SSE 24 26 13 14 - - -
04/03:00am - - - - - SSE 26 28 14 15 - - -
04/02:30am - - - - - S 24 26 13 14 - - -
04/02:00am - - - - - SSE 22 26 12 14 - - -
04/01:30am - - - - - S 24 28 13 15 - - -
04/01:00am - - - - - S 22 26 12 14 - - -
04/12:30am - - - - - SSE 19 22 10 12 - - -
04/12:00am - - - - - SSE 24 28 13 15 - - -
 
Date/Time
WST
Temp
°C
App
Temp
°C
Dew
Point
°C
Rel
Hum
%
Delta-T
°C
Wind Press
QNH
hPa
Press
MSL
hPa
Rain since
9am
mm
Dir  Spd
km/h
Gust
km/h
Spd
kts
Gust
kts
03/11:30pm - - - - - S 24 28 13 15 - - -
03/11:00pm - - - - - SSE 22 26 12 14 - - -
03/10:30pm - - - - - SSE 20 24 11 13 - - -
03/10:00pm - - - - - SE 20 26 11 14 - - -
03/09:30pm - - - - - SE 20 24 11 13 - - -
03/09:00pm - - - - - SE 24 28 13 15 - - -
03/08:30pm - - - - - SE 20 26 11 14 - - -
03/08:00pm - - - - - SE 26 32 14 17 - - -
03/07:30pm - - - - - ESE 24 28 13 15 - - -
03/07:00pm - - - - - ESE 20 24 11 13 - - -
03/06:30pm - - - - - ESE 28 33 15 18 - - -
03/06:00pm - - - - - E 26 32 14 17 - - -
03/05:30pm - - - - - NE 35 41 19 22 - - -
03/05:00pm - - - - - NE 41 48 22 26 - - -
03/04:30pm - - - - - NNE 39 46 21 25 - - -
03/04:00pm - - - - - NE 35 39 19 21 - - -
03/03:30pm - - - - - NNE 35 41 19 22 - - -
03/03:00pm - - - - - NNE 32 37 17 20 - - -
03/02:30pm - - - - - NNE 33 37 18 20 - - -
03/02:00pm - - - - - NNE 33 39 18 21 - - -
03/01:30pm - - - - - N 33 37 18 20 - - -
03/01:00pm - - - - - N 28 35 15 19 - - -
03/12:30pm - - - - - NNE 24 30 13 16 - - -
03/12:00pm - - - - - N 19 22 10 12 - - -
03/11:30am - - - - - N 22 28 12 15 - - -
03/11:00am - - - - - NNE 17 20 9 11 - - -
03/10:30am - - - - - NE 9 11 5 6 - - -
03/10:00am - - - - - S 15 17 8 9 - - -
03/09:30am - - - - - SW 13 19 7 10 - - -
03/09:00am - - - - - WSW 6 9 3 5 - - -
03/08:30am - - - - - NE 17 20 9 11 - - -
03/08:00am - - - - - NE 19 26 10 14 - - -
03/07:30am - - - - - NNE 17 20 9 11 - - -
03/07:00am - - - - - NNE 17 20 9 11 - - -
03/06:30am - - - - - NNE 19 22 10 12 - - -
03/06:00am - - - - - NE 20 26 11 14 - - -
03/05:30am - - - - - NE 17 20 9 11 - - -
03/05:00am - - - - - NNE 11 19 6 10 - - -
03/04:30am - - - - - NE 19 26 10 14 - - -
03/04:00am - - - - - N 9 11 5 6 - - -
03/03:30am - - - - - SE 13 17 7 9 - - -
03/03:00am - - - - - SE 13 19 7 10 - - -
03/02:30am - - - - - SE 15 22 8 12 - - -
03/02:00am - - - - - SE 17 20 9 11 - - -
03/01:30am - - - - - SE 17 19 9 10 - - -
03/01:00am - - - - - SE 19 22 10 12 - - -
03/12:30am - - - - - SE 17 22 9 12 - - -
03/12:00am - - - - - SE 20 28 11 15 - - -
 
Date/Time
WST
Temp
°C
App
Temp
°C
Dew
Point
°C
Rel
Hum
%
Delta-T
°C
Wind Press
QNH
hPa
Press
MSL
hPa
Rain since
9am
mm
Dir  Spd
km/h
Gust
km/h
Spd
kts
Gust
kts
02/11:30pm - - - - - S 30 37 16 20 - - -
02/11:00pm - - - - - S 39 48 21 26 - - -
02/10:30pm - - - - - S 39 44 21 24 - - -
02/10:00pm - - - - - S 37 46 20 25 - - -
02/09:30pm - - - - - S 43 52 23 28 - - -
02/09:00pm - - - - - S 46 57 25 31 - - -
02/08:50pm - - - - - S 30 50 16 27 - - -
02/08:30pm - - - - - S 28 33 15 18 - - -
02/08:00pm - - - - - S 32 37 17 20 - - -
02/07:30pm - - - - - S 32 37 17 20 - - -
02/07:00pm - - - - - S 28 32 15 17 - - -
02/06:30pm - - - - - SW 28 35 15 19 - - -

Latest Capital City Observations: Canberra | Sydney | Melbourne | Brisbane | Adelaide | Perth | Hobart | Darwin

Other formats

Comma delimited format used in spreadsheet applications
http://www.bom.gov.au/fwo/IDW60901/IDW60901.99255.axf

JavaScript Object Notation format (JSON) in row-major order
http://www.bom.gov.au/fwo/IDW60901/IDW60901.99255.json

Data quality

Most of these data are generated automatically and are frequently updated. Quality checks on data are not normally performed. It is possible for incorrect values to appear. Refer to information at About Latest Weather Observations and please check the disclaimer before using these data.